sensor_id;sensor_type;location;lat;lon;timestamp;temperature;humidity
32865;DHT22;19219;44.500;11.188;2023-05-21T00:00:58;15.60;99.90
32865;DHT22;19219;44.500;11.188;2023-05-21T00:03:25;15.60;99.90
32865;DHT22;19219;44.500;11.188;2023-05-21T00:05:52;15.60;99.90
32865;DHT22;19219;44.500;11.188;2023-05-21T00:08:19;15.60;99.90
32865;DHT22;19219;44.500;11.188;2023-05-21T00:10:45;15.60;99.90
32865;DHT22;19219;44.500;11.188;2023-05-21T00:13:11;15.60;99.90
32865;DHT22;19219;44.500;11.188;2023-05-21T00:15:37;15.60;99.90
32865;DHT22;19219;44.500;11.188;2023-05-21T00:18:03;15.60;99.90
32865;DHT22;19219;44.500;11.188;2023-05-21T00:20:29;15.60;99.90
32865;DHT22;19219;44.500;11.188;2023-05-21T00:22:59;15.60;99.90
32865;DHT22;19219;44.500;11.188;2023-05-21T00:25:30;15.60;99.90
32865;DHT22;19219;44.500;11.188;2023-05-21T00:27:55;15.70;99.90
32865;DHT22;19219;44.500;11.188;2023-05-21T00:30:21;15.70;99.90
32865;DHT22;19219;44.500;11.188;2023-05-21T00:32:47;15.70;99.90
32865;DHT22;19219;44.500;11.188;2023-05-21T00:35:12;15.70;99.90
32865;DHT22;19219;44.500;11.188;2023-05-21T00:37:38;15.80;99.90
32865;DHT22;19219;44.500;11.188;2023-05-21T00:40:05;15.80;99.90
32865;DHT22;19219;44.500;11.188;2023-05-21T00:42:33;15.80;99.90
32865;DHT22;19219;44.500;11.188;2023-05-21T00:45:04;15.80;99.90
32865;DHT22;19219;44.500;11.188;2023-05-21T00:47:30;15.80;99.90
32865;DHT22;19219;44.500;11.188;2023-05-21T00:49:56;15.80;99.90
32865;DHT22;19219;44.500;11.188;2023-05-21T00:52:22;15.90;99.90
32865;DHT22;19219;44.500;11.188;2023-05-21T00:54:51;15.90;99.90
32865;DHT22;19219;44.500;11.188;2023-05-21T00:57:18;15.90;99.90
32865;DHT22;19219;44.500;11.188;2023-05-21T00:59:50;15.90;99.90
32865;DHT22;19219;44.500;11.188;2023-05-21T01:02:17;15.90;99.90
32865;DHT22;19219;44.500;11.188;2023-05-21T01:04:45;15.80;99.90
32865;DHT22;19219;44.500;11.188;2023-05-21T01:07:12;15.80;99.90
32865;DHT22;19219;44.500;11.188;2023-05-21T01:09:39;15.70;99.90
32865;DHT22;19219;44.500;11.188;2023-05-21T01:12:07;15.80;99.90
32865;DHT22;19219;44.500;11.188;2023-05-21T01:14:35;15.70;99.90
32865;DHT22;19219;44.500;11.188;2023-05-21T01:17:03;15.70;99.90
32865;DHT22;19219;44.500;11.188;2023-05-21T01:19:29;15.70;99.90
32865;DHT22;19219;44.500;11.188;2023-05-21T01:22:02;15.70;99.90
32865;DHT22;19219;44.500;11.188;2023-05-21T01:24:29;15.60;99.90
32865;DHT22;19219;44.500;11.188;2023-05-21T01:26:54;15.60;99.90
32865;DHT22;19219;44.500;11.188;2023-05-21T01:29:20;15.60;99.90
32865;DHT22;19219;44.500;11.188;2023-05-21T01:34:25;15.50;99.90
32865;DHT22;19219;44.500;11.188;2023-05-21T01:37:21;15.50;99.90
32865;DHT22;19219;44.500;11.188;2023-05-21T01:39:54;15.40;99.90
32865;DHT22;19219;44.500;11.188;2023-05-21T01:42:22;15.30;99.90
32865;DHT22;19219;44.500;11.188;2023-05-21T01:44:50;15.30;99.90
32865;DHT22;19219;44.500;11.188;2023-05-21T01:47:21;15.30;99.90
32865;DHT22;19219;44.500;11.188;2023-05-21T01:49:49;15.30;99.90
32865;DHT22;19219;44.500;11.188;2023-05-21T01:52:15;15.30;99.90
32865;DHT22;19219;44.500;11.188;2023-05-21T01:54:41;15.30;99.90
32865;DHT22;19219;44.500;11.188;2023-05-21T01:57:07;15.30;99.90
32865;DHT22;19219;44.500;11.188;2023-05-21T01:59:33;15.30;99.90
32865;DHT22;19219;44.500;11.188;2023-05-21T02:01:59;15.30;99.90
32865;DHT22;19219;44.500;11.188;2023-05-21T02:04:25;15.30;99.90
32865;DHT22;19219;44.500;11.188;2023-05-21T02:06:50;15.20;99.90
32865;DHT22;19219;44.500;11.188;2023-05-21T02:09:16;15.30;99.90
32865;DHT22;19219;44.500;11.188;2023-05-21T02:11:42;15.30;99.90
32865;DHT22;19219;44.500;11.188;2023-05-21T02:14:07;15.20;99.90
32865;DHT22;19219;44.500;11.188;2023-05-21T02:16:35;15.20;99.90
32865;DHT22;19219;44.500;11.188;2023-05-21T02:19:00;15.20;99.90
32865;DHT22;19219;44.500;11.188;2023-05-21T02:21:28;15.20;99.90
32865;DHT22;19219;44.500;11.188;2023-05-21T02:23:54;15.30;99.90
32865;DHT22;19219;44.500;11.188;2023-05-21T02:26:20;15.30;99.90
32865;DHT22;19219;44.500;11.188;2023-05-21T02:28:47;15.30;99.90
32865;DHT22;19219;44.500;11.188;2023-05-21T02:31:12;15.30;99.90
32865;DHT22;19219;44.500;11.188;2023-05-21T02:33:41;15.30;99.90
32865;DHT22;19219;44.500;11.188;2023-05-21T02:36:06;15.30;99.90
32865;DHT22;19219;44.500;11.188;2023-05-21T02:38:39;15.30;99.90
32865;DHT22;19219;44.500;11.188;2023-05-21T02:41:08;15.30;99.90
32865;DHT22;19219;44.500;11.188;2023-05-21T02:43:34;15.30;99.90
32865;DHT22;19219;44.500;11.188;2023-05-21T02:46:00;15.30;99.90
32865;DHT22;19219;44.500;11.188;2023-05-21T02:48:26;15.30;99.90
32865;DHT22;19219;44.500;11.188;2023-05-21T02:50:52;15.40;99.90
32865;DHT22;19219;44.500;11.188;2023-05-21T02:53:18;15.40;99.90
32865;DHT22;19219;44.500;11.188;2023-05-21T02:55:43;15.40;99.90
32865;DHT22;19219;44.500;11.188;2023-05-21T02:58:09;15.30;99.90
32865;DHT22;19219;44.500;11.188;2023-05-21T03:00:37;15.40;99.90
32865;DHT22;19219;44.500;11.188;2023-05-21T03:03:03;15.40;99.90
32865;DHT22;19219;44.500;11.188;2023-05-21T03:05:29;15.40;99.90
32865;DHT22;19219;44.500;11.188;2023-05-21T03:07:55;15.40;99.90
32865;DHT22;19219;44.500;11.188;2023-05-21T03:10:21;15.40;99.90
32865;DHT22;19219;44.500;11.188;2023-05-21T03:12:46;15.40;99.90
32865;DHT22;19219;44.500;11.188;2023-05-21T03:15:12;15.40;99.90
32865;DHT22;19219;44.500;11.188;2023-05-21T03:17:39;15.40;99.90
32865;DHT22;19219;44.500;11.188;2023-05-21T03:20:07;15.40;99.90
32865;DHT22;19219;44.500;11.188;2023-05-21T03:22:41;15.30;99.90
32865;DHT22;19219;44.500;11.188;2023-05-21T03:25:07;15.30;99.90
32865;DHT22;19219;44.500;11.188;2023-05-21T03:27:34;15.30;99.90
32865;DHT22;19219;44.500;11.188;2023-05-21T03:30:00;15.30;99.90
32865;DHT22;19219;44.500;11.188;2023-05-21T03:32:25;15.20;99.90
32865;DHT22;19219;44.500;11.188;2023-05-21T03:34:51;15.20;99.90
32865;DHT22;19219;44.500;11.188;2023-05-21T03:37:16;15.20;99.90
32865;DHT22;19219;44.500;11.188;2023-05-21T03:39:42;15.30;99.90
32865;DHT22;19219;44.500;11.188;2023-05-21T03:42:08;15.30;99.90
32865;DHT22;19219;44.500;11.188;2023-05-21T03:44:33;15.20;99.90
32865;DHT22;19219;44.500;11.188;2023-05-21T03:46:59;15.20;99.90
32865;DHT22;19219;44.500;11.188;2023-05-21T03:49:24;15.20;99.90
32865;DHT22;19219;44.500;11.188;2023-05-21T03:51:51;15.30;99.90
32865;DHT22;19219;44.500;11.188;2023-05-21T03:54:17;15.20;99.90
32865;DHT22;19219;44.500;11.188;2023-05-21T03:56:42;15.20;99.90
32865;DHT22;19219;44.500;11.188;2023-05-21T03:59:08;15.20;99.90
32865;DHT22;19219;44.500;11.188;2023-05-21T04:01:34;15.20;99.90
32865;DHT22;19219;44.500;11.188;2023-05-21T04:04:00;15.10;99.90
32865;DHT22;19219;44.500;11.188;2023-05-21T04:06:26;15.00;99.90
32865;DHT22;19219;44.500;11.188;2023-05-21T04:08:52;15.00;99.90
32865;DHT22;19219;44.500;11.188;2023-05-21T04:11:18;15.00;99.90
32865;DHT22;19219;44.500;11.188;2023-05-21T04:13:43;15.10;99.90
32865;DHT22;19219;44.500;11.188;2023-05-21T04:16:09;15.10;99.90
32865;DHT22;19219;44.500;11.188;2023-05-21T04:18:35;15.10;99.90
32865;DHT22;19219;44.500;11.188;2023-05-21T04:21:00;15.20;99.90
32865;DHT22;19219;44.500;11.188;2023-05-21T04:23:27;15.20;99.90
32865;DHT22;19219;44.500;11.188;2023-05-21T04:25:52;15.20;99.90
32865;DHT22;19219;44.500;11.188;2023-05-21T04:28:18;15.20;99.90
32865;DHT22;19219;44.500;11.188;2023-05-21T04:30:48;15.20;99.90
32865;DHT22;19219;44.500;11.188;2023-05-21T04:33:14;15.20;99.90
32865;DHT22;19219;44.500;11.188;2023-05-21T04:35:50;15.20;99.90
32865;DHT22;19219;44.500;11.188;2023-05-21T04:38:16;15.10;99.90
32865;DHT22;19219;44.500;11.188;2023-05-21T04:40:49;15.10;99.90
32865;DHT22;19219;44.500;11.188;2023-05-21T04:43:18;15.10;99.90
32865;DHT22;19219;44.500;11.188;2023-05-21T04:45:50;15.10;99.90
32865;DHT22;19219;44.500;11.188;2023-05-21T04:48:16;15.10;99.90
32865;DHT22;19219;44.500;11.188;2023-05-21T04:50:42;15.10;99.90
32865;DHT22;19219;44.500;11.188;2023-05-21T04:53:08;15.10;99.90
32865;DHT22;19219;44.500;11.188;2023-05-21T04:55:34;15.10;99.90
32865;DHT22;19219;44.500;11.188;2023-05-21T04:58:07;15.10;99.90
32865;DHT22;19219;44.500;11.188;2023-05-21T05:00:36;15.20;99.90
32865;DHT22;19219;44.500;11.188;2023-05-21T05:03:02;15.30;99.90
32865;DHT22;19219;44.500;11.188;2023-05-21T05:05:28;15.40;99.90
32865;DHT22;19219;44.500;11.188;2023-05-21T05:07:54;15.40;99.90
32865;DHT22;19219;44.500;11.188;2023-05-21T05:10:20;15.40;99.90
32865;DHT22;19219;44.500;11.188;2023-05-21T05:12:47;15.50;99.90
32865;DHT22;19219;44.500;11.188;2023-05-21T05:15:12;15.50;99.90
32865;DHT22;19219;44.500;11.188;2023-05-21T05:17:38;15.60;99.90
32865;DHT22;19219;44.500;11.188;2023-05-21T05:20:08;15.70;99.90
32865;DHT22;19219;44.500;11.188;2023-05-21T05:22:34;15.70;99.90
32865;DHT22;19219;44.500;11.188;2023-05-21T05:25:00;15.70;99.90
32865;DHT22;19219;44.500;11.188;2023-05-21T05:27:25;15.80;99.90
32865;DHT22;19219;44.500;11.188;2023-05-21T05:29:51;15.90;99.90
32865;DHT22;19219;44.500;11.188;2023-05-21T05:32:17;15.90;99.90
32865;DHT22;19219;44.500;11.188;2023-05-21T05:34:44;16.00;99.90
32865;DHT22;19219;44.500;11.188;2023-05-21T05:37:09;16.10;99.90
32865;DHT22;19219;44.500;11.188;2023-05-21T05:39:35;16.10;99.90
32865;DHT22;19219;44.500;11.188;2023-05-21T05:42:01;16.20;99.90
32865;DHT22;19219;44.500;11.188;2023-05-21T05:44:27;16.30;99.90
32865;DHT22;19219;44.500;11.188;2023-05-21T05:46:53;16.40;99.90
32865;DHT22;19219;44.500;11.188;2023-05-21T05:49:19;16.50;99.90
32865;DHT22;19219;44.500;11.188;2023-05-21T05:51:44;16.60;99.90
32865;DHT22;19219;44.500;11.188;2023-05-21T05:54:10;16.80;99.90
32865;DHT22;19219;44.500;11.188;2023-05-21T05:56:36;17.00;99.90
32865;DHT22;19219;44.500;11.188;2023-05-21T05:59:01;17.40;99.90
32865;DHT22;19219;44.500;11.188;2023-05-21T06:01:27;17.70;99.90
32865;DHT22;19219;44.500;11.188;2023-05-21T06:03:53;17.90;99.90
32865;DHT22;19219;44.500;11.188;2023-05-21T06:06:18;18.00;99.90
32865;DHT22;19219;44.500;11.188;2023-05-21T06:08:44;18.00;99.90
32865;DHT22;19219;44.500;11.188;2023-05-21T06:11:10;17.90;99.90
32865;DHT22;19219;44.500;11.188;2023-05-21T06:13:36;18.00;99.90
32865;DHT22;19219;44.500;11.188;2023-05-21T06:16:02;18.20;99.90
32865;DHT22;19219;44.500;11.188;2023-05-21T06:18:28;18.10;99.90
32865;DHT22;19219;44.500;11.188;2023-05-21T06:20:53;18.20;99.90
32865;DHT22;19219;44.500;11.188;2023-05-21T06:23:19;18.30;99.90
32865;DHT22;19219;44.500;11.188;2023-05-21T06:25:45;18.40;99.90
32865;DHT22;19219;44.500;11.188;2023-05-21T06:28:10;18.50;99.90
32865;DHT22;19219;44.500;11.188;2023-05-21T06:30:36;18.40;99.90
32865;DHT22;19219;44.500;11.188;2023-05-21T06:33:02;18.40;99.90
32865;DHT22;19219;44.500;11.188;2023-05-21T06:35:27;18.40;99.90
32865;DHT22;19219;44.500;11.188;2023-05-21T06:37:53;18.50;99.90
32865;DHT22;19219;44.500;11.188;2023-05-21T06:40:19;18.50;99.90
32865;DHT22;19219;44.500;11.188;2023-05-21T06:42:45;18.50;99.90
32865;DHT22;19219;44.500;11.188;2023-05-21T06:45:11;18.50;99.90
32865;DHT22;19219;44.500;11.188;2023-05-21T06:47:36;18.40;99.90
32865;DHT22;19219;44.500;11.188;2023-05-21T06:50:02;18.50;99.90
32865;DHT22;19219;44.500;11.188;2023-05-21T06:52:28;18.70;99.90
32865;DHT22;19219;44.500;11.188;2023-05-21T06:54:55;19.00;99.90
32865;DHT22;19219;44.500;11.188;2023-05-21T06:57:21;19.30;99.90
32865;DHT22;19219;44.500;11.188;2023-05-21T06:59:47;20.60;99.90
32865;DHT22;19219;44.500;11.188;2023-05-21T07:02:12;22.00;99.90
32865;DHT22;19219;44.500;11.188;2023-05-21T07:04:38;22.70;99.90
32865;DHT22;19219;44.500;11.188;2023-05-21T07:07:04;22.60;99.90
32865;DHT22;19219;44.500;11.188;2023-05-21T07:09:30;21.80;99.90
32865;DHT22;19219;44.500;11.188;2023-05-21T07:11:55;22.00;99.90
32865;DHT22;19219;44.500;11.188;2023-05-21T07:14:23;21.90;99.90
32865;DHT22;19219;44.500;11.188;2023-05-21T07:16:49;21.90;99.90
32865;DHT22;19219;44.500;11.188;2023-05-21T07:19:15;22.00;99.90
32865;DHT22;19219;44.500;11.188;2023-05-21T07:21:40;22.00;99.90
32865;DHT22;19219;44.500;11.188;2023-05-21T07:24:06;21.90;99.90
32865;DHT22;19219;44.500;11.188;2023-05-21T07:26:32;21.50;99.90
32865;DHT22;19219;44.500;11.188;2023-05-21T07:28:57;21.40;99.90
32865;DHT22;19219;44.500;11.188;2023-05-21T07:31:23;21.40;99.90
32865;DHT22;19219;44.500;11.188;2023-05-21T07:33:49;21.40;99.90
32865;DHT22;19219;44.500;11.188;2023-05-21T07:36:15;21.60;99.90
32865;DHT22;19219;44.500;11.188;2023-05-21T07:38:42;21.80;99.90
32865;DHT22;19219;44.500;11.188;2023-05-21T07:41:08;22.20;99.90
32865;DHT22;19219;44.500;11.188;2023-05-21T07:43:34;22.40;99.90
32865;DHT22;19219;44.500;11.188;2023-05-21T07:46:00;22.40;99.90
32865;DHT22;19219;44.500;11.188;2023-05-21T07:48:26;22.70;99.90
32865;DHT22;19219;44.500;11.188;2023-05-21T07:50:51;23.10;99.90
32865;DHT22;19219;44.500;11.188;2023-05-21T07:53:18;23.20;99.90
32865;DHT22;19219;44.500;11.188;2023-05-21T07:55:43;23.10;99.90
32865;DHT22;19219;44.500;11.188;2023-05-21T07:58:16;23.00;99.90
32865;DHT22;19219;44.500;11.188;2023-05-21T08:00:45;22.70;99.90
32865;DHT22;19219;44.500;11.188;2023-05-21T08:03:15;22.80;99.90
32865;DHT22;19219;44.500;11.188;2023-05-21T08:05:42;23.10;99.90
32865;DHT22;19219;44.500;11.188;2023-05-21T08:08:16;23.40;99.90
32865;DHT22;19219;44.500;11.188;2023-05-21T08:10:42;23.20;99.90
32865;DHT22;19219;44.500;11.188;2023-05-21T08:13:13;23.20;99.90
32865;DHT22;19219;44.500;11.188;2023-05-21T08:15:38;23.40;99.90
32865;DHT22;19219;44.500;11.188;2023-05-21T08:18:04;23.50;99.90
32865;DHT22;19219;44.500;11.188;2023-05-21T08:20:31;23.70;99.90
32865;DHT22;19219;44.500;11.188;2023-05-21T08:22:59;23.80;99.90
32865;DHT22;19219;44.500;11.188;2023-05-21T08:25:28;23.90;99.90
32865;DHT22;19219;44.500;11.188;2023-05-21T08:27:54;24.00;99.90
32865;DHT22;19219;44.500;11.188;2023-05-21T08:30:21;23.80;99.90
32865;DHT22;19219;44.500;11.188;2023-05-21T08:32:48;24.30;99.90
32865;DHT22;19219;44.500;11.188;2023-05-21T08:35:14;24.50;99.90
32865;DHT22;19219;44.500;11.188;2023-05-21T08:37:39;24.40;99.90
32865;DHT22;19219;44.500;11.188;2023-05-21T08:40:06;24.20;99.90
32865;DHT22;19219;44.500;11.188;2023-05-21T08:42:43;24.30;99.90
32865;DHT22;19219;44.500;11.188;2023-05-21T08:45:13;24.50;99.90
32865;DHT22;19219;44.500;11.188;2023-05-21T08:47:43;24.50;99.90
32865;DHT22;19219;44.500;11.188;2023-05-21T08:50:13;24.30;99.90
32865;DHT22;19219;44.500;11.188;2023-05-21T08:52:40;24.20;99.90
32865;DHT22;19219;44.500;11.188;2023-05-21T08:55:07;24.20;99.90
32865;DHT22;19219;44.500;11.188;2023-05-21T08:57:33;24.20;99.90
32865;DHT22;19219;44.500;11.188;2023-05-21T09:00:00;24.10;99.90
32865;DHT22;19219;44.500;11.188;2023-05-21T09:02:26;24.00;99.90
32865;DHT22;19219;44.500;11.188;2023-05-21T09:04:55;24.20;99.90
32865;DHT22;19219;44.500;11.188;2023-05-21T09:07:23;24.50;99.90
32865;DHT22;19219;44.500;11.188;2023-05-21T09:09:58;24.50;99.90
32865;DHT22;19219;44.500;11.188;2023-05-21T09:12:26;24.70;99.90
32865;DHT22;19219;44.500;11.188;2023-05-21T09:14:52;24.90;99.90
32865;DHT22;19219;44.500;11.188;2023-05-21T09:17:18;25.00;99.90
32865;DHT22;19219;44.500;11.188;2023-05-21T09:20:07;24.80;99.90
32865;DHT22;19219;44.500;11.188;2023-05-21T09:22:43;24.60;99.90
32865;DHT22;19219;44.500;11.188;2023-05-21T09:25:11;24.90;99.90
32865;DHT22;19219;44.500;11.188;2023-05-21T09:27:37;25.20;99.90
32865;DHT22;19219;44.500;11.188;2023-05-21T09:30:04;25.60;99.90
32865;DHT22;19219;44.500;11.188;2023-05-21T09:32:30;25.50;99.90
32865;DHT22;19219;44.500;11.188;2023-05-21T09:34:56;25.70;99.90
32865;DHT22;19219;44.500;11.188;2023-05-21T09:37:22;25.90;99.90
32865;DHT22;19219;44.500;11.188;2023-05-21T09:39:48;26.00;99.90
32865;DHT22;19219;44.500;11.188;2023-05-21T09:42:14;25.70;99.90
32865;DHT22;19219;44.500;11.188;2023-05-21T09:44:43;26.00;99.90
32865;DHT22;19219;44.500;11.188;2023-05-21T09:47:09;25.80;99.90
32865;DHT22;19219;44.500;11.188;2023-05-21T09:49:36;25.70;99.90
32865;DHT22;19219;44.500;11.188;2023-05-21T09:52:02;25.60;99.90
32865;DHT22;19219;44.500;11.188;2023-05-21T09:54:32;25.40;99.90
32865;DHT22;19219;44.500;11.188;2023-05-21T09:56:59;25.10;99.90
32865;DHT22;19219;44.500;11.188;2023-05-21T09:59:39;24.80;99.90
32865;DHT22;19219;44.500;11.188;2023-05-21T10:02:20;24.50;99.90
32865;DHT22;19219;44.500;11.188;2023-05-21T10:04:48;24.80;99.90
32865;DHT22;19219;44.500;11.188;2023-05-21T10:07:19;25.10;99.90
32865;DHT22;19219;44.500;11.188;2023-05-21T10:09:55;25.00;99.90
32865;DHT22;19219;44.500;11.188;2023-05-21T10:12:22;24.60;99.90
32865;DHT22;19219;44.500;11.188;2023-05-21T10:14:59;24.50;99.90
32865;DHT22;19219;44.500;11.188;2023-05-21T10:17:29;24.80;99.90
32865;DHT22;19219;44.500;11.188;2023-05-21T10:19:58;25.00;99.90
32865;DHT22;19219;44.500;11.188;2023-05-21T10:22:24;25.00;99.90
32865;DHT22;19219;44.500;11.188;2023-05-21T10:24:51;25.10;99.90
32865;DHT22;19219;44.500;11.188;2023-05-21T10:27:18;25.00;99.90
32865;DHT22;19219;44.500;11.188;2023-05-21T10:29:45;24.90;99.90
32865;DHT22;19219;44.500;11.188;2023-05-21T10:32:14;24.90;99.90
32865;DHT22;19219;44.500;11.188;2023-05-21T10:34:45;25.00;99.90
32865;DHT22;19219;44.500;11.188;2023-05-21T10:37:13;25.10;99.90
32865;DHT22;19219;44.500;11.188;2023-05-21T10:39:39;25.50;99.90
32865;DHT22;19219;44.500;11.188;2023-05-21T10:47:58;25.30;99.90
32865;DHT22;19219;44.500;11.188;2023-05-21T10:50:35;25.20;99.90
32865;DHT22;19219;44.500;11.188;2023-05-21T10:58:47;25.20;99.90
32865;DHT22;19219;44.500;11.188;2023-05-21T11:01:16;25.20;99.90
32865;DHT22;19219;44.500;11.188;2023-05-21T11:03:45;25.30;99.90
32865;DHT22;19219;44.500;11.188;2023-05-21T11:06:22;25.50;99.90
32865;DHT22;19219;44.500;11.188;2023-05-21T11:08:49;25.40;99.90
32865;DHT22;19219;44.500;11.188;2023-05-21T11:11:38;25.40;99.90
32865;DHT22;19219;44.500;11.188;2023-05-21T11:16:53;25.40;99.90
32865;DHT22;19219;44.500;11.188;2023-05-21T11:19:19;25.10;99.90
32865;DHT22;19219;44.500;11.188;2023-05-21T11:21:50;25.00;99.90
32865;DHT22;19219;44.500;11.188;2023-05-21T11:24:19;25.00;99.90
32865;DHT22;19219;44.500;11.188;2023-05-21T11:29:18;25.20;99.90
32865;DHT22;19219;44.500;11.188;2023-05-21T11:31:47;25.20;99.90
32865;DHT22;19219;44.500;11.188;2023-05-21T11:34:21;25.30;99.90
32865;DHT22;19219;44.500;11.188;2023-05-21T11:39:42;24.80;99.90
32865;DHT22;19219;44.500;11.188;2023-05-21T11:42:08;24.60;99.90
32865;DHT22;19219;44.500;11.188;2023-05-21T11:44:38;24.80;99.90
32865;DHT22;19219;44.500;11.188;2023-05-21T11:47:05;25.00;99.90
32865;DHT22;19219;44.500;11.188;2023-05-21T11:49:31;25.00;99.90
32865;DHT22;19219;44.500;11.188;2023-05-21T11:51:58;24.90;99.90
32865;DHT22;19219;44.500;11.188;2023-05-21T11:54:25;24.70;99.90
32865;DHT22;19219;44.500;11.188;2023-05-21T11:56:52;24.80;99.90
32865;DHT22;19219;44.500;11.188;2023-05-21T11:59:18;24.90;99.90
32865;DHT22;19219;44.500;11.188;2023-05-21T12:01:44;25.10;99.90
32865;DHT22;19219;44.500;11.188;2023-05-21T12:04:10;25.30;99.90
32865;DHT22;19219;44.500;11.188;2023-05-21T12:06:41;25.40;99.90
32865;DHT22;19219;44.500;11.188;2023-05-21T12:09:10;25.40;99.90
32865;DHT22;19219;44.500;11.188;2023-05-21T12:11:40;25.30;99.90
32865;DHT22;19219;44.500;11.188;2023-05-21T12:14:09;25.10;99.90
32865;DHT22;19219;44.500;11.188;2023-05-21T12:16:35;25.00;99.90
32865;DHT22;19219;44.500;11.188;2023-05-21T12:19:02;24.80;99.90
32865;DHT22;19219;44.500;11.188;2023-05-21T12:21:31;24.90;99.90
32865;DHT22;19219;44.500;11.188;2023-05-21T12:23:58;25.00;99.90
32865;DHT22;19219;44.500;11.188;2023-05-21T12:26:24;25.20;99.90
32865;DHT22;19219;44.500;11.188;2023-05-21T12:28:54;25.50;99.90
32865;DHT22;19219;44.500;11.188;2023-05-21T12:31:20;25.60;99.90
32865;DHT22;19219;44.500;11.188;2023-05-21T12:33:50;25.60;99.90
32865;DHT22;19219;44.500;11.188;2023-05-21T12:36:26;25.40;99.90
32865;DHT22;19219;44.500;11.188;2023-05-21T12:38:52;25.20;99.90
32865;DHT22;19219;44.500;11.188;2023-05-21T12:41:18;25.10;99.90
32865;DHT22;19219;44.500;11.188;2023-05-21T12:43:44;24.90;99.90
32865;DHT22;19219;44.500;11.188;2023-05-21T12:46:11;24.60;99.90
32865;DHT22;19219;44.500;11.188;2023-05-21T12:48:39;24.50;99.90
32865;DHT22;19219;44.500;11.188;2023-05-21T12:51:07;24.40;99.90
32865;DHT22;19219;44.500;11.188;2023-05-21T12:53:36;24.20;99.90
32865;DHT22;19219;44.500;11.188;2023-05-21T12:56:13;24.10;99.90
32865;DHT22;19219;44.500;11.188;2023-05-21T12:58:40;24.10;99.90
32865;DHT22;19219;44.500;11.188;2023-05-21T13:01:10;24.10;99.90
32865;DHT22;19219;44.500;11.188;2023-05-21T13:03:36;24.00;99.90
32865;DHT22;19219;44.500;11.188;2023-05-21T13:06:02;24.00;99.90
32865;DHT22;19219;44.500;11.188;2023-05-21T13:08:30;24.00;99.90
32865;DHT22;19219;44.500;11.188;2023-05-21T13:10:55;24.00;99.90
32865;DHT22;19219;44.500;11.188;2023-05-21T13:13:21;24.00;99.90
32865;DHT22;19219;44.500;11.188;2023-05-21T13:15:47;24.10;99.90
32865;DHT22;19219;44.500;11.188;2023-05-21T13:18:12;24.00;99.90
32865;DHT22;19219;44.500;11.188;2023-05-21T13:20:40;24.20;99.90
32865;DHT22;19219;44.500;11.188;2023-05-21T13:23:05;24.20;99.90
32865;DHT22;19219;44.500;11.188;2023-05-21T13:25:31;24.20;99.90
32865;DHT22;19219;44.500;11.188;2023-05-21T13:28:01;24.30;99.90
32865;DHT22;19219;44.500;11.188;2023-05-21T13:30:27;24.40;99.90
32865;DHT22;19219;44.500;11.188;2023-05-21T13:32:53;24.20;99.90
32865;DHT22;19219;44.500;11.188;2023-05-21T13:35:19;24.00;99.90
32865;DHT22;19219;44.500;11.188;2023-05-21T13:37:45;23.90;99.90
32865;DHT22;19219;44.500;11.188;2023-05-21T13:40:12;23.60;99.90
32865;DHT22;19219;44.500;11.188;2023-05-21T13:42:45;23.60;99.90
32865;DHT22;19219;44.500;11.188;2023-05-21T13:45:13;23.50;99.90
32865;DHT22;19219;44.500;11.188;2023-05-21T13:47:40;23.50;99.90
32865;DHT22;19219;44.500;11.188;2023-05-21T13:50:08;23.80;99.90
32865;DHT22;19219;44.500;11.188;2023-05-21T13:52:34;24.10;99.90
32865;DHT22;19219;44.500;11.188;2023-05-21T13:54:59;24.40;99.90
32865;DHT22;19219;44.500;11.188;2023-05-21T13:57:25;24.60;99.90
32865;DHT22;19219;44.500;11.188;2023-05-21T13:59:51;24.80;99.90
32865;DHT22;19219;44.500;11.188;2023-05-21T14:02:17;25.00;99.90
32865;DHT22;19219;44.500;11.188;2023-05-21T14:04:43;25.20;99.90
32865;DHT22;19219;44.500;11.188;2023-05-21T14:07:10;25.20;99.90
32865;DHT22;19219;44.500;11.188;2023-05-21T14:09:36;25.10;99.90
32865;DHT22;19219;44.500;11.188;2023-05-21T14:12:02;25.10;99.90
32865;DHT22;19219;44.500;11.188;2023-05-21T14:14:29;25.10;99.90
32865;DHT22;19219;44.500;11.188;2023-05-21T14:16:56;25.20;99.90
32865;DHT22;19219;44.500;11.188;2023-05-21T14:19:21;25.30;99.90
32865;DHT22;19219;44.500;11.188;2023-05-21T14:21:47;25.50;99.90
32865;DHT22;19219;44.500;11.188;2023-05-21T14:24:15;25.60;99.90
32865;DHT22;19219;44.500;11.188;2023-05-21T14:26:41;25.70;99.90
32865;DHT22;19219;44.500;11.188;2023-05-21T14:29:07;25.60;99.90
32865;DHT22;19219;44.500;11.188;2023-05-21T14:31:33;25.60;99.90
32865;DHT22;19219;44.500;11.188;2023-05-21T14:33:59;25.60;99.90
32865;DHT22;19219;44.500;11.188;2023-05-21T14:36:26;25.70;99.90
32865;DHT22;19219;44.500;11.188;2023-05-21T14:38:51;25.70;99.90
32865;DHT22;19219;44.500;11.188;2023-05-21T14:41:17;25.60;99.90
32865;DHT22;19219;44.500;11.188;2023-05-21T14:43:43;25.40;99.90
32865;DHT22;19219;44.500;11.188;2023-05-21T14:46:08;25.40;99.90
32865;DHT22;19219;44.500;11.188;2023-05-21T14:48:34;25.50;99.90
32865;DHT22;19219;44.500;11.188;2023-05-21T14:51:01;25.40;99.90
32865;DHT22;19219;44.500;11.188;2023-05-21T14:53:27;25.30;99.90
32865;DHT22;19219;44.500;11.188;2023-05-21T14:55:52;25.30;99.90
32865;DHT22;19219;44.500;11.188;2023-05-21T14:58:21;25.50;99.90
32865;DHT22;19219;44.500;11.188;2023-05-21T15:00:46;25.50;99.90
32865;DHT22;19219;44.500;11.188;2023-05-21T15:03:12;25.60;99.90
32865;DHT22;19219;44.500;11.188;2023-05-21T15:05:37;25.60;99.90
32865;DHT22;19219;44.500;11.188;2023-05-21T15:08:03;25.60;99.90
32865;DHT22;19219;44.500;11.188;2023-05-21T15:10:30;25.80;99.90
32865;DHT22;19219;44.500;11.188;2023-05-21T15:12:56;25.80;99.90
32865;DHT22;19219;44.500;11.188;2023-05-21T15:15:22;25.90;99.90
32865;DHT22;19219;44.500;11.188;2023-05-21T15:17:48;25.70;99.90
32865;DHT22;19219;44.500;11.188;2023-05-21T15:20:15;25.70;99.90
32865;DHT22;19219;44.500;11.188;2023-05-21T15:22:41;25.70;99.90
32865;DHT22;19219;44.500;11.188;2023-05-21T15:25:07;25.80;99.90
32865;DHT22;19219;44.500;11.188;2023-05-21T15:27:33;25.70;99.90
32865;DHT22;19219;44.500;11.188;2023-05-21T15:29:59;25.60;99.90
32865;DHT22;19219;44.500;11.188;2023-05-21T15:32:25;25.30;99.90
32865;DHT22;19219;44.500;11.188;2023-05-21T15:34:51;25.30;99.90
32865;DHT22;19219;44.500;11.188;2023-05-21T15:37:17;25.30;99.90